Time;durP1;ratioP1;P1;durP2;ratioP2;P2;SDS_P1;SDS_P2;PMS_P1;PMS_P2;Temp;Humidity;BMP_temperature;BMP_pressure;BME280_temperature;BME280_humidity;BME280_pressure;Samples;Min_cycle;Max_cycle;Signal;HPM_P1;HPM_P2
2023/01/27 00:02:09;;;;;;;24.30;9.45;;;;;;;1.69;100.00;101349.38;5173048;28;20065;-73
2023/01/27 00:04:39;;;;;;;21.05;9.20;;;;;;;1.69;100.00;101350.28;5177467;28;20037;-74
2023/01/27 00:07:09;;;;;;;23.50;9.30;;;;;;;1.76;100.00;101346.06;5171836;28;20548;-70
2023/01/27 00:09:40;;;;;;;23.05;8.60;;;;;;;1.75;100.00;101349.47;5171780;28;20018;-72
2023/01/27 00:15:10;;;;;;;23.42;9.05;;;;;;;1.76;100.00;101349.47;5174782;28;20353;-75
2023/01/27 00:17:41;;;;;;;26.08;9.40;;;;;;;1.72;100.00;101345.16;5177775;28;20029;-74
2023/01/27 00:20:11;;;;;;;24.88;9.75;;;;;;;1.69;100.00;101341.66;5175865;28;20026;-74
2023/01/27 00:25:30;;;;;;;29.17;10.02;;;;;;;1.56;100.00;101337.22;5170397;28;20033;-75
2023/01/27 00:28:04;;;;;;;30.48;9.82;;;;;;;1.78;100.00;101342.63;5176249;28;20503;-74
2023/01/27 00:30:34;;;;;;;29.90;10.02;;;;;;;1.63;100.00;101345.06;5226186;23;20041;-70
2023/01/27 00:36:03;;;;;;;23.60;9.18;;;;;;;1.77;100.00;101340.91;5200690;28;20087;-71
2023/01/27 00:38:39;;;;;;;28.80;9.77;;;;;;;1.83;100.00;101334.13;5200949;28;20275;-71
2023/01/27 00:41:18;;;;;;;27.92;10.80;;;;;;;1.74;100.00;101333.16;5199742;28;20149;-71
2023/01/27 00:43:52;;;;;;;29.40;9.70;;;;;;;1.64;100.00;101346.78;5192074;28;20022;-72
2023/01/27 00:46:24;;;;;;;32.58;10.65;;;;;;;1.62;100.00;101335.59;5197329;28;20533;-70
2023/01/27 00:48:54;;;;;;;30.77;9.93;;;;;;;1.77;100.00;101337.47;5194215;28;20034;-71
2023/01/27 00:51:25;;;;;;;33.40;10.45;;;;;;;1.70;100.00;101341.69;5192416;28;20029;-72
2023/01/27 00:53:55;;;;;;;30.20;10.63;;;;;;;1.74;100.00;101340.03;5188902;28;20080;-71
2023/01/27 00:56:27;;;;;;;27.52;10.20;;;;;;;1.70;100.00;101345.97;5196940;28;20482;-71
2023/01/27 00:58:57;;;;;;;27.65;9.60;;;;;;;1.66;100.00;101350.25;5194893;28;20032;-71
2023/01/27 01:01:28;;;;;;;28.77;10.13;;;;;;;1.62;100.00;101351.06;5195206;28;20026;-71
2023/01/27 01:03:58;;;;;;;33.97;10.45;;;;;;;1.66;100.00;101359.66;5189161;28;20091;-71
2023/01/27 01:06:29;;;;;;;26.70;9.52;;;;;;;1.74;100.00;101353.75;5192047;28;20026;-71
2023/01/27 01:08:59;;;;;;;29.08;10.07;;;;;;;1.70;100.00;101352.00;5183577;28;20337;-71
2023/01/27 01:11:29;;;;;;;30.73;10.13;;;;;;;1.74;100.00;101351.19;5191146;28;20037;-71
2023/01/27 01:14:00;;;;;;;27.52;9.60;;;;;;;1.68;100.00;101357.97;5198771;28;20364;-71
2023/01/27 01:16:30;;;;;;;32.40;10.75;;;;;;;1.63;100.00;101351.91;5199008;28;20025;-71
2023/01/27 01:19:00;;;;;;;28.50;9.50;;;;;;;1.56;100.00;101352.69;5202430;28;20372;-71
2023/01/27 01:21:30;;;;;;;30.88;10.10;;;;;;;1.74;100.00;101358.06;5191694;28;20037;-71
2023/01/27 01:24:01;;;;;;;25.77;9.30;;;;;;;1.77;100.00;101356.38;5191804;28;20490;-71
2023/01/27 01:26:31;;;;;;;30.30;10.75;;;;;;;1.85;100.00;101365.06;5189053;28;20034;-71
2023/01/27 01:29:01;;;;;;;29.75;10.02;;;;;;;1.82;100.00;101363.31;5202890;28;20039;-71
2023/01/27 01:31:32;;;;;;;25.52;10.00;;;;;;;1.86;100.00;101362.50;5192040;28;20164;-71
2023/01/27 01:34:02;;;;;;;26.92;9.80;;;;;;;1.74;100.00;101363.22;5191074;28;20048;-71
2023/01/27 01:36:33;;;;;;;27.27;9.77;;;;;;;1.89;100.00;101369.41;5189707;28;20030;-71
2023/01/27 01:39:03;;;;;;;25.08;9.77;;;;;;;1.85;100.00;101367.66;5194857;28;20032;-71
2023/01/27 01:41:33;;;;;;;25.30;9.15;;;;;;;1.85;100.00;101376.22;5202958;28;20032;-71
2023/01/27 01:44:23;;;;;;;26.55;9.85;;;;;;;1.77;100.00;101374.41;5187499;28;20026;-71
2023/01/27 01:46:53;;;;;;;26.15;9.80;;;;;;;1.81;100.00;101371.03;5192089;28;20033;-71
2023/01/27 01:49:35;;;;;;;26.45;9.90;;;;;;;1.74;100.00;101371.78;5197251;28;20022;-71
2023/01/27 01:52:10;;;;;;;24.75;9.50;;;;;;;1.65;100.00;101369.13;5189950;28;20572;-71
2023/01/27 01:54:48;;;;;;;28.75;9.95;;;;;;;1.59;100.00;101379.31;5189822;28;20063;-71
2023/01/27 01:57:23;;;;;;;27.88;10.05;;;;;;;1.71;100.00;101366.59;5193973;28;20033;-71
2023/01/27 01:59:57;;;;;;;;;;;;;;;1.59;100.00;101379.31;5193354;28;20025;-71
2023/01/27 02:02:28;;;;;;;32.22;10.05;;;;;;;1.54;100.00;101373.25;5191757;28;19959;-71
2023/01/27 02:05:05;;;;;;;26.30;9.40;;;;;;;1.56;100.00;101379.28;5188215;28;20019;-71
2023/01/27 02:08:14;;;;;;;28.15;9.98;;;;;;;1.84;100.00;101373.66;5193626;28;20129;-71
2023/01/27 02:10:44;;;;;;;30.15;10.20;;;;;;;1.67;100.00;101377.72;5189108;28;20042;-71
2023/01/27 02:13:15;;;;;;;27.45;9.32;;;;;;;1.76;100.00;101380.41;5188366;28;20087;-71
2023/01/27 02:15:45;;;;;;;27.23;9.30;;;;;;;1.88;100.00;101383.13;5195649;28;20072;-71
2023/01/27 02:18:16;;;;;;;32.08;10.73;;;;;;;1.79;100.00;101386.47;5193863;28;20025;-71
2023/01/27 02:20:50;;;;;;;29.85;10.15;;;;;;;1.71;100.00;101379.50;5193254;28;20037;-71
2023/01/27 02:23:52;;;;;;;30.80;11.25;;;;;;;1.85;100.00;101388.25;5190483;28;20033;-71
2023/01/27 02:26:33;;;;;;;32.65;10.85;;;;;;;1.77;100.00;101389.00;5199479;28;20536;-70
2023/01/27 02:29:09;;;;;;;26.13;10.07;;;;;;;1.85;100.00;101388.25;5194153;28;20520;-71
2023/01/27 02:31:40;;;;;;;29.92;9.95;;;;;;;1.96;100.00;101384.97;5191198;28;20080;-71
2023/01/27 02:34:15;;;;;;;30.40;10.73;;;;;;;1.96;100.00;101382.38;5199298;28;20427;-71
2023/01/27 02:36:51;;;;;;;29.60;10.65;;;;;;;1.89;100.00;101383.16;5195099;28;20041;-71
2023/01/27 02:39:29;;;;;;;32.65;11.02;;;;;;;2.04;100.00;101390.22;5193562;28;20364;-71
2023/01/27 02:42:04;;;;;;;28.58;10.57;;;;;;;2.11;100.00;101389.41;5193320;28;20040;-72
2023/01/27 02:44:35;;;;;;;33.45;11.00;;;;;;;2.11;100.00;101389.41;5197301;28;20026;-71
2023/01/27 02:47:05;;;;;;;29.92;10.60;;;;;;;2.12;100.00;101384.28;5192833;28;20056;-71
2023/01/27 02:49:36;;;;;;;29.45;10.27;;;;;;;2.15;100.00;101388.63;5191326;28;20052;-71
2023/01/27 02:52:06;;;;;;;29.50;10.93;;;;;;;2.07;100.00;101396.28;5202400;28;20033;-71
2023/01/27 02:54:36;;;;;;;30.05;10.85;;;;;;;2.10;100.00;101390.25;5200502;28;20033;-72
2023/01/27 02:57:06;;;;;;;27.45;9.75;;;;;;;2.04;100.00;101385.06;5187387;28;20483;-71
2023/01/27 02:59:37;;;;;;;32.95;11.35;;;;;;;2.09;100.00;101393.69;5196684;28;20043;-72
2023/01/27 03:02:07;;;;;;;30.95;11.25;;;;;;;2.20;100.00;101397.28;5201410;28;20037;-71
2023/01/27 03:04:37;;;;;;;30.35;10.60;;;;;;;2.11;100.00;101394.56;5197181;28;20026;-71
2023/01/27 03:07:08;;;;;;;27.27;9.65;;;;;;;2.03;100.00;101393.63;5196665;28;20489;-71
2023/01/27 03:09:38;;;;;;;30.85;10.60;;;;;;;1.97;100.00;101404.72;5202445;28;20102;-71
2023/01/27 03:12:20;;;;;;;28.27;10.57;;;;;;;2.12;100.00;101399.75;5187949;28;20029;-71
2023/01/27 03:20:29;;;;;;;27.52;10.13;;;;;;;2.16;100.00;101408.41;5200513;28;20056;-71
2023/01/27 03:22:59;;;;;;;29.20;10.45;;;;;;;2.30;100.00;101414.59;5199479;28;20021;-71
2023/01/27 03:25:29;;;;;;;31.48;10.60;;;;;;;2.22;100.00;101413.63;5200550;28;20028;-71
2023/01/27 03:28:00;;;;;;;25.85;10.05;;;;;;;2.24;100.00;101410.22;5198176;28;20467;-72
2023/01/27 03:30:31;;;;;;;29.92;10.23;;;;;;;2.29;100.00;101415.41;5206036;28;20546;-71
2023/01/27 03:33:02;;;;;;;27.77;10.32;;;;;;;2.23;100.00;101415.34;5206763;28;20116;-72
2023/01/27 03:35:37;;;;;;;22.80;9.75;;;;;;;2.24;100.00;101412.78;5201013;28;20037;-72
2023/01/27 03:46:42;;;;;;;27.45;9.73;;;;;;;1.92;100.00;101426.13;5200199;28;20095;-71
2023/01/27 03:49:12;;;;;;;24.85;9.32;;;;;;;1.82;100.00;101437.19;5193492;28;20384;-72
2023/01/27 03:51:42;;;;;;;24.13;9.48;;;;;;;1.85;100.00;101437.22;5197377;28;20513;-71
2023/01/27 03:54:13;;;;;;;25.30;9.88;;;;;;;2.03;100.00;101430.56;5201125;28;20030;-71
2023/01/27 03:56:43;;;;;;;25.77;9.75;;;;;;;2.01;100.00;101431.41;5192549;28;20025;-70
2023/01/27 03:59:13;;;;;;;32.60;11.45;;;;;;;1.82;100.00;101435.47;5194774;28;20026;-71
2023/01/27 04:01:44;;;;;;;32.15;11.50;;;;;;;1.69;100.00;101437.84;5190580;28;20037;-71
2023/01/27 04:07:03;;;;;;;30.65;9.80;;;;;;;1.62;100.00;101435.16;5193134;28;20117;-71
2023/01/27 04:09:35;;;;;;;31.38;9.80;;;;;;;1.58;100.00;101444.56;5194230;28;20108;-71
2023/01/27 04:12:06;;;;;;;31.98;10.85;;;;;;;1.87;100.00;101440.69;5192235;28;20025;-72
2023/01/27 04:14:38;;;;;;;26.70;9.90;;;;;;;1.68;100.00;101436.13;5198034;28;20025;-71
2023/01/27 04:17:14;;;;;;;27.92;10.48;;;;;;;1.75;100.00;101430.19;5205417;28;20046;-71
2023/01/27 04:19:45;;;;;;;23.55;9.15;;;;;;;2.00;100.00;101425.38;5197034;28;20036;-72
2023/01/27 04:22:16;;;;;;;27.58;9.45;;;;;;;1.80;100.00;101436.31;5191235;28;20186;-71
2023/01/27 04:24:46;;;;;;;26.05;9.43;;;;;;;1.65;100.00;101430.06;5192051;28;20478;-71
2023/01/27 04:27:19;;;;;;;27.83;9.48;;;;;;;1.60;100.00;101437.72;5189839;28;20185;-72
2023/01/27 04:29:49;;;;;;;23.70;9.20;;;;;;;1.68;100.00;101430.97;5195216;28;20033;-71
2023/01/27 04:32:19;;;;;;;25.95;9.68;;;;;;;1.77;100.00;101432.81;5195313;28;20510;-72
2023/01/27 04:34:50;;;;;;;31.40;10.95;;;;;;;1.74;100.00;101440.50;5195625;28;20075;-71
2023/01/27 04:37:20;;;;;;;27.50;10.30;;;;;;;1.71;100.00;101440.47;5193346;28;20030;-72
2023/01/27 04:39:50;;;;;;;28.73;10.35;;;;;;;1.73;100.00;101442.19;5195229;28;20285;-71
2023/01/27 04:42:20;;;;;;;26.40;9.82;;;;;;;1.78;100.00;101440.53;5195008;28;20112;-72
2023/01/27 04:44:51;;;;;;;30.55;10.50;;;;;;;1.77;100.00;101443.97;5198181;28;20025;-72
2023/01/27 04:47:21;;;;;;;28.27;9.73;;;;;;;1.74;100.00;101448.22;5202828;28;20032;-72
2023/01/27 04:49:51;;;;;;;29.60;9.55;;;;;;;1.74;100.00;101449.09;5191821;28;20379;-71
2023/01/27 04:52:22;;;;;;;26.80;10.07;;;;;;;1.75;100.00;101455.97;5193797;28;20088;-71
2023/01/27 04:54:52;;;;;;;24.25;9.15;;;;;;;1.85;100.00;101457.84;5193724;28;20120;-72
2023/01/27 04:57:22;;;;;;;26.20;8.98;;;;;;;1.81;100.00;101464.66;5191061;28;20104;-72
2023/01/27 04:59:52;;;;;;;24.13;9.25;;;;;;;1.82;100.00;101470.69;5198925;28;20021;-72
2023/01/27 05:02:25;;;;;;;23.92;8.55;;;;;;;1.83;100.00;101467.25;5196057;28;20078;-72
2023/01/27 05:04:55;;;;;;;24.23;8.75;;;;;;;1.85;100.00;101465.56;5200289;28;20108;-71
2023/01/27 05:07:25;;;;;;;21.73;8.30;;;;;;;1.84;100.00;101469.84;5192942;28;20435;-72
2023/01/27 05:09:56;;;;;;;20.38;7.20;;;;;;;1.86;100.00;101472.44;5192939;28;20029;-71
2023/01/27 05:12:26;;;;;;;23.35;9.20;;;;;;;1.85;100.00;101468.13;5194877;28;20026;-71
2023/01/27 05:14:56;;;;;;;22.38;8.35;;;;;;;1.85;100.00;101473.28;5199484;28;20525;-72
2023/01/27 05:17:33;;;;;;;23.23;8.75;;;;;;;1.85;100.00;101473.28;5198806;28;20200;-71
2023/01/27 05:20:03;;;;;;;23.48;8.60;;;;;;;2.02;100.00;101479.53;5191885;28;20021;-71
2023/01/27 05:22:34;;;;;;;21.40;7.85;;;;;;;2.15;100.00;101481.44;5189749;28;20075;-71
2023/01/27 05:25:04;;;;;;;18.85;7.75;;;;;;;2.25;100.00;101478.09;5201991;28;20082;-71
2023/01/27 05:27:35;;;;;;;18.90;7.65;;;;;;;2.26;100.00;101478.13;5197600;28;20052;-71
2023/01/27 05:30:06;;;;;;;16.08;7.18;;;;;;;2.27;100.00;101484.13;5189719;28;20109;-72
2023/01/27 05:32:36;;;;;;;17.42;7.18;;;;;;;2.16;100.00;101490.91;5194305;28;20372;-71
2023/01/27 05:35:07;;;;;;;19.58;8.15;;;;;;;2.26;100.00;101490.16;5198092;28;20123;-72
2023/01/27 05:37:37;;;;;;;26.15;8.15;;;;;;;2.03;100.00;101482.13;5191953;28;20025;-72
2023/01/27 05:40:09;;;;;;;19.38;7.80;;;;;;;1.99;100.00;101490.66;5189946;28;20029;-71
2023/01/27 05:42:40;;;;;;;18.15;8.05;;;;;;;2.03;100.00;101486.44;5194038;28;20112;-71
2023/01/27 05:45:10;;;;;;;19.55;7.30;;;;;;;2.00;100.00;101494.97;5195465;28;20100;-71
2023/01/27 05:47:40;;;;;;;18.00;7.30;;;;;;;2.04;100.00;101491.63;5192632;28;20463;-71
2023/01/27 05:50:11;;;;;;;19.30;8.27;;;;;;;2.33;100.00;101492.81;5190697;28;20025;-70
2023/01/27 05:52:41;;;;;;;24.45;8.68;;;;;;;2.21;100.00;101492.69;5190610;28;20037;-71
2023/01/27 05:55:11;;;;;;;18.73;7.82;;;;;;;2.27;100.00;101491.88;5203829;28;20031;-71
2023/01/27 05:57:41;;;;;;;17.90;7.32;;;;;;;2.33;100.00;101497.97;5194667;28;20501;-71
2023/01/27 06:00:13;;;;;;;20.50;7.30;;;;;;;2.43;100.00;101496.38;5204012;28;20028;-71
2023/01/27 06:02:43;;;;;;;14.73;6.82;;;;;;;2.45;100.00;101494.69;5198247;28;20045;-71
2023/01/27 06:05:13;;;;;;;17.20;7.00;;;;;;;2.49;100.00;101493.88;5191674;28;20029;-71
2023/01/27 06:07:44;;;;;;;16.83;7.55;;;;;;;2.57;100.00;101493.13;5193528;28;20083;-71
2023/01/27 06:10:14;;;;;;;14.43;6.30;;;;;;;2.76;100.00;101499.34;5191914;28;20036;-72
2023/01/27 06:12:44;;;;;;;14.45;6.05;;;;;;;2.75;100.00;101502.75;5196100;28;20417;-72
2023/01/27 06:15:15;;;;;;;14.93;6.13;;;;;;;2.73;100.00;101499.31;5192926;28;20064;-72
2023/01/27 06:17:46;;;;;;;11.93;5.78;;;;;;;2.74;100.00;101501.03;5194079;28;20558;-71
2023/01/27 06:20:17;;;;;;;13.48;5.57;;;;;;;2.67;100.00;101500.09;5194416;28;20060;-72
2023/01/27 06:22:49;;;;;;;11.68;5.25;;;;;;;2.71;100.00;101506.16;5197653;28;20232;-72
2023/01/27 06:25:19;;;;;;;11.68;5.40;;;;;;;2.80;100.00;101509.72;5200077;28;20101;-72
2023/01/27 06:27:56;;;;;;;10.27;4.75;;;;;;;2.98;100.00;101509.91;5203235;28;20100;-72
2023/01/27 06:30:27;;;;;;;10.82;4.93;;;;;;;2.95;100.00;101511.56;5187234;28;20026;-72
2023/01/27 06:32:57;;;;;;;9.60;3.58;;;;;;;3.06;100.00;101515.97;5195982;28;20035;-72
2023/01/27 06:35:28;;;;;;;9.27;4.07;;;;;;;2.97;100.00;101515.91;5194814;28;20051;-72
2023/01/27 06:38:00;;;;;;;6.68;3.40;;;;;;;3.05;100.00;101510.81;5194341;28;20033;-72
2023/01/27 06:40:31;;;;;;;6.03;2.72;;;;;;;2.97;100.00;101515.03;5193778;28;20036;-72
2023/01/27 06:43:02;;;;;;;5.47;2.97;;;;;;;3.02;100.00;101506.47;5199433;28;20037;-72
2023/01/27 06:45:32;;;;;;;4.28;2.60;;;;;;;2.98;100.00;101511.59;5194887;28;20391;-73
2023/01/27 06:48:03;;;;;;;7.32;2.88;;;;;;;3.02;100.00;101519.41;5195701;28;20139;-72
2023/01/27 06:50:33;;;;;;;7.45;2.38;;;;;;;3.13;100.00;101522.06;5189668;28;20029;-72
2023/01/27 06:53:05;;;;;;;3.08;1.63;;;;;;;3.19;100.00;101515.25;5192584;28;20632;-72
2023/01/27 06:55:43;;;;;;;4.03;2.03;;;;;;;3.20;100.00;101519.56;5190565;28;20073;-73
2023/01/27 06:58:14;;;;;;;3.78;1.60;;;;;;;3.26;100.00;101522.22;5194995;28;20033;-72
2023/01/27 07:00:44;;;;;;;2.92;1.70;;;;;;;3.21;100.00;101530.78;5199731;28;20040;-72
2023/01/27 07:03:15;;;;;;;4.35;1.48;;;;;;;3.29;100.00;101534.28;5191565;28;20455;-72
2023/01/27 07:05:45;;;;;;;4.32;1.60;;;;;;;3.38;100.00;101532.63;5195179;28;20053;-72
2023/01/27 07:08:15;;;;;;;2.08;1.35;;;;;;;3.27;100.00;101541.16;5198435;28;20025;-72
2023/01/27 07:10:46;;;;;;;2.90;1.25;;;;;;;3.30;100.00;101530.84;5202589;28;20064;-72
2023/01/27 07:13:17;;;;;;;3.90;1.30;;;;;;;3.36;100.00;101544.69;5191318;28;20033;-72
2023/01/27 07:15:53;;;;;;;1.80;1.10;;;;;;;3.41;100.00;101549.91;5193096;28;20037;-71
2023/01/27 07:18:24;;;;;;;3.75;1.30;;;;;;;3.29;100.00;101549.78;5206664;28;20104;-72
2023/01/27 07:20:54;;;;;;;2.40;1.30;;;;;;;3.29;100.00;101552.34;5195826;28;20414;-72
2023/01/27 07:23:24;;;;;;;1.30;1.00;;;;;;;3.36;100.00;101546.41;5194876;28;20394;-72
2023/01/27 07:25:55;;;;;;;1.35;0.80;;;;;;;3.36;100.00;101546.41;5190972;28;20037;-72
2023/01/27 07:28:25;;;;;;;2.38;1.00;;;;;;;3.31;100.00;101548.06;5194737;28;20436;-72
2023/01/27 07:31:00;;;;;;;1.42;0.80;;;;;;;3.37;100.00;101548.16;5194611;28;20192;-72
2023/01/27 07:33:30;;;;;;;3.30;1.13;;;;;;;3.32;100.00;101553.25;5191213;28;20049;-71
2023/01/27 07:36:00;;;;;;;2.53;1.00;;;;;;;3.35;100.00;101560.19;5194688;28;20127;-71
2023/01/27 07:38:30;;;;;;;1.25;0.90;;;;;;;3.39;100.00;101561.94;5199812;28;20166;-72
2023/01/27 07:41:05;;;;;;;1.70;1.00;;;;;;;3.35;100.00;101566.19;5196353;28;20052;-72
2023/01/27 07:43:35;;;;;;;4.10;1.10;;;;;;;3.39;100.00;101564.53;5193652;28;20025;-72
2023/01/27 07:46:06;;;;;;;4.00;1.30;;;;;;;3.35;100.00;101571.38;5194512;28;20029;-72
2023/01/27 07:48:36;;;;;;;2.63;1.48;;;;;;;3.37;100.00;101569.66;5197637;28;20055;-72
2023/01/27 07:51:10;;;;;;;2.85;1.38;;;;;;;3.44;100.00;101575.75;5193842;28;20387;-72
2023/01/27 07:53:41;;;;;;;2.53;1.30;;;;;;;3.32;100.00;101585.97;5193401;28;20033;-72
2023/01/27 07:56:12;;;;;;;4.22;1.35;;;;;;;3.31;100.00;101579.06;5192820;28;20030;-72
2023/01/27 07:58:42;;;;;;;2.40;1.20;;;;;;;3.39;100.00;101587.78;5197558;28;20026;-72
2023/01/27 08:01:13;;;;;;;4.07;1.27;;;;;;;3.38;100.00;101598.97;5197316;28;20513;-73
2023/01/27 08:03:43;;;;;;;1.55;1.10;;;;;;;3.51;100.00;101598.22;5206883;28;20040;-72
2023/01/27 08:06:13;;;;;;;3.00;1.30;;;;;;;3.42;100.00;101599.00;5193796;28;20030;-72
2023/01/27 08:08:43;;;;;;;4.13;1.42;;;;;;;3.43;100.00;101605.03;5195518;28;20065;-72
2023/01/27 08:11:15;;;;;;;1.77;1.27;;;;;;;3.43;100.00;101603.31;5195781;28;20033;-72
2023/01/27 08:13:46;;;;;;;4.10;1.35;;;;;;;3.47;100.00;101614.53;5199549;28;20173;-72
2023/01/27 08:16:16;;;;;;;4.53;1.75;;;;;;;3.38;100.00;101607.56;5198021;28;20136;-72
2023/01/27 08:18:46;;;;;;;4.00;1.60;;;;;;;3.42;100.00;101613.63;5197597;28;20056;-72
2023/01/27 08:21:17;;;;;;;2.63;1.55;;;;;;;3.38;100.00;101624.78;5194179;28;20105;-72
2023/01/27 08:23:47;;;;;;;6.28;1.48;;;;;;;3.37;100.00;101618.75;5193598;28;20467;-72
2023/01/27 08:26:17;;;;;;;5.28;1.50;;;;;;;3.45;100.00;101622.28;5191138;28;20060;-72
2023/01/27 08:28:48;;;;;;;3.60;1.60;;;;;;;3.51;100.00;101634.41;5193649;28;20022;-71
2023/01/27 08:31:18;;;;;;;4.50;1.40;;;;;;;3.55;100.00;101621.50;5202221;28;20030;-72
2023/01/27 08:33:52;;;;;;;2.65;1.45;;;;;;;3.59;100.00;101636.22;5191609;28;20030;-73
2023/01/27 08:36:23;;;;;;;4.70;1.50;;;;;;;3.54;100.00;101624.09;5195107;28;20042;-72
2023/01/27 08:38:54;;;;;;;5.35;1.40;;;;;;;3.49;100.00;101636.06;5199564;28;20430;-72
2023/01/27 08:41:26;;;;;;;3.30;1.40;;;;;;;3.57;100.00;101627.53;5200956;28;20533;-72
2023/01/27 08:43:56;;;;;;;2.85;1.38;;;;;;;3.54;100.00;101634.44;5193710;28;20021;-72
2023/01/27 08:46:26;;;;;;;6.07;1.30;;;;;;;3.57;100.00;101631.88;5197197;28;20045;-72
2023/01/27 08:48:57;;;;;;;2.88;1.30;;;;;;;3.65;100.00;101633.66;5199613;28;20422;-72
2023/01/27 08:51:27;;;;;;;4.03;1.40;;;;;;;3.68;100.00;101636.28;5193819;28;20025;-72
2023/01/27 08:53:57;;;;;;;3.70;1.20;;;;;;;3.72;100.00;101640.63;5192184;28;20391;-72
2023/01/27 08:56:29;;;;;;;2.00;1.20;;;;;;;3.75;100.00;101641.50;5193802;28;20040;-72
2023/01/27 08:58:59;;;;;;;5.63;1.55;;;;;;;3.64;100.00;101648.28;5201944;28;20028;-72
2023/01/27 09:01:30;;;;;;;6.97;1.27;;;;;;;3.76;100.00;101638.06;5199450;28;20390;-72
2023/01/27 09:04:00;;;;;;;6.22;1.50;;;;;;;3.79;100.00;101650.19;5196983;28;20026;-72
2023/01/27 09:06:30;;;;;;;5.70;1.23;;;;;;;3.77;100.00;101659.63;5191002;28;20021;-72
2023/01/27 09:09:10;;;;;;;3.55;1.10;;;;;;;3.79;100.00;101658.78;5196513;28;20402;-72
2023/01/27 09:11:43;;;;;;;5.88;1.27;;;;;;;3.69;100.00;101664.75;5204725;28;20072;-72
2023/01/27 09:14:13;;;;;;;1.65;0.98;;;;;;;3.75;100.00;101667.38;5189995;28;20034;-72
2023/01/27 09:16:43;;;;;;;5.90;0.82;;;;;;;3.92;100.00;101670.97;5197596;28;20033;-72
2023/01/27 09:19:14;;;;;;;4.10;1.05;;;;;;;3.78;100.00;101672.56;5195281;28;20117;-73
2023/01/27 09:21:45;;;;;;;6.40;1.10;;;;;;;3.78;100.00;101669.97;5197421;28;20116;-72
2023/01/27 09:24:16;;;;;;;2.05;0.90;;;;;;;3.72;100.00;101671.63;5194413;28;20462;-71
2023/01/27 09:26:47;;;;;;;2.90;1.20;;;;;;;3.69;100.00;101680.25;5201542;28;20375;-72
2023/01/27 09:29:17;;;;;;;3.80;1.08;;;;;;;3.73;100.00;101670.78;5197719;28;20030;-72
2023/01/27 09:31:48;;;;;;;4.95;1.00;;;;;;;3.82;100.00;101674.31;5194692;28;20037;-71
2023/01/27 09:34:18;;;;;;;4.00;1.10;;;;;;;3.77;100.00;101680.31;5193206;28;20021;-72
2023/01/27 09:36:53;;;;;;;3.28;1.10;;;;;;;3.77;100.00;101676.00;5195274;28;20022;-72
2023/01/27 09:39:26;;;;;;;3.33;1.63;;;;;;;3.81;100.00;101684.66;5196798;28;20045;-72
2023/01/27 09:42:30;;;;;;;2.95;0.90;;;;;;;3.71;100.00;101683.69;5197601;28;20284;-72
2023/01/27 09:45:22;;;;;;;2.53;0.90;;;;;;;3.76;100.00;101684.59;5191305;28;20056;-72
2023/01/27 09:48:13;;;;;;;2.67;0.88;;;;;;;3.67;100.00;101694.88;5200460;28;20064;-72
2023/01/27 09:50:53;;;;;;;2.90;0.82;;;;;;;3.78;100.00;101688.06;5190961;28;20526;-72
2023/01/27 09:53:44;;;;;;;2.20;0.70;;;;;;;3.86;100.00;101682.97;5192434;28;20040;-72
2023/01/27 09:56:36;;;;;;;3.05;0.85;;;;;;;3.89;100.00;101683.88;5196170;28;20030;-72
2023/01/27 09:59:36;;;;;;;3.47;0.90;;;;;;;3.85;100.00;101687.28;5189490;28;20037;-73
2023/01/27 10:02:33;;;;;;;1.98;0.80;;;;;;;3.82;100.00;101684.66;5191373;28;20072;-73
2023/01/27 10:05:15;;;;;;;1.98;0.82;;;;;;;3.77;100.00;101690.66;5195917;28;20025;-72
2023/01/27 10:08:25;;;;;;;5.13;0.90;;;;;;;3.70;100.00;101688.84;5201675;28;20044;-72
2023/01/27 10:11:04;;;;;;;1.90;0.60;;;;;;;3.70;100.00;101681.09;5194807;28;20065;-72
2023/01/27 10:13:46;;;;;;;2.08;0.70;;;;;;;3.70;100.00;101689.72;5195571;28;20104;-72
2023/01/27 10:16:31;;;;;;;1.75;0.82;;;;;;;3.68;100.00;101683.69;5194908;28;20099;-72
2023/01/27 10:19:04;;;;;;;2.75;0.98;;;;;;;3.69;100.00;101688.00;5194192;28;20021;-72
2023/01/27 10:22:00;;;;;;;4.88;0.90;;;;;;;3.65;100.00;101687.94;5196321;28;20040;-72
2023/01/27 10:24:49;;;;;;;2.97;1.08;;;;;;;3.63;100.00;101680.16;5193015;28;20069;-72
2023/01/27 10:27:24;;;;;;;2.00;0.70;;;;;;;3.66;100.00;101682.81;5194319;28;20543;-72
2023/01/27 10:29:59;;;;;;;2.65;0.80;;;;;;;3.64;100.00;101681.91;5198089;28;20108;-72
2023/01/27 10:32:58;;;;;;;4.43;0.80;;;;;;;3.58;100.00;101688.75;5195010;28;20542;-72
2023/01/27 10:35:39;;;;;;;4.18;0.85;;;;;;;3.64;100.00;101687.06;5189756;28;20061;-72
2023/01/27 10:38:44;;;;;;;3.40;1.10;;;;;;;3.70;100.00;101681.97;5191072;28;20490;-72
2023/01/27 10:41:38;;;;;;;3.22;0.65;;;;;;;3.83;100.00;101691.59;5193080;28;20046;-72
2023/01/27 10:44:27;;;;;;;4.03;0.75;;;;;;;3.71;100.00;101694.03;5187870;28;20071;-72
2023/01/27 10:47:10;;;;;;;1.95;0.70;;;;;;;3.73;100.00;101691.47;5203043;28;20021;-72
2023/01/27 10:49:50;;;;;;;2.53;0.77;;;;;;;3.95;100.00;101686.50;5200191;28;20021;-72
2023/01/27 10:52:26;;;;;;;2.08;0.77;;;;;;;3.97;100.00;101682.22;5191784;28;20044;-73
2023/01/27 10:55:21;;;;;;;2.05;0.60;;;;;;;3.94;100.00;101684.78;5187769;28;20029;-72
2023/01/27 10:58:03;;;;;;;1.63;0.57;;;;;;;3.95;100.00;101676.16;5202850;28;20018;-72
2023/01/27 11:00:44;;;;;;;1.35;0.50;;;;;;;4.01;100.00;101673.66;5196613;28;20034;-72
2023/01/27 11:03:25;;;;;;;6.43;0.70;;;;;;;3.96;100.00;101680.47;5204595;28;20032;-71
2023/01/27 11:06:01;;;;;;;3.30;0.75;;;;;;;3.99;100.00;101679.66;5198264;28;20040;-72
2023/01/27 11:08:37;;;;;;;2.25;0.68;;;;;;;3.99;100.00;101670.16;5188021;28;20021;-72
2023/01/27 11:14:03;;;;;;;4.47;0.80;;;;;;;3.97;100.00;101674.44;5190263;28;20044;-72
2023/01/27 11:16:37;;;;;;;3.58;0.60;;;;;;;3.98;100.00;101671.00;5193414;28;20039;-73
2023/01/27 11:19:29;;;;;;;3.00;0.90;;;;;;;3.97;100.00;101671.88;5194935;28;20033;-72
2023/01/27 11:22:03;;;;;;;3.97;0.60;;;;;;;4.00;100.00;101666.75;5188444;28;20030;-72
2023/01/27 11:24:40;;;;;;;3.55;0.63;;;;;;;3.92;100.00;101670.13;5189137;28;20021;-72
2023/01/27 11:27:25;;;;;;;3.70;0.80;;;;;;;3.93;100.00;101677.03;5193414;28;20068;-71
2023/01/27 11:30:08;;;;;;;5.10;0.95;;;;;;;3.94;100.00;101679.59;5200684;28;20025;-72
2023/01/27 11:33:12;;;;;;;2.70;0.70;;;;;;;3.87;100.00;101687.28;5195254;28;20049;-71
2023/01/27 11:35:42;;;;;;;3.42;0.60;;;;;;;3.71;100.00;101696.63;5189557;28;20034;-72
2023/01/27 11:38:19;;;;;;;4.88;1.23;;;;;;;3.83;100.00;101686.41;5188954;28;20496;-72
2023/01/27 11:40:51;;;;;;;3.85;0.70;;;;;;;3.84;100.00;101687.25;5201255;28;20061;-72
2023/01/27 11:43:25;;;;;;;2.53;0.75;;;;;;;3.77;100.00;101691.50;5199143;28;20425;-72
2023/01/27 11:46:01;;;;;;;3.05;0.70;;;;;;;3.77;100.00;101690.66;5196166;28;20021;-73
2023/01/27 11:48:39;;;;;;;2.03;0.60;;;;;;;3.78;100.00;101688.06;5192139;28;20029;-72
2023/01/27 11:51:16;;;;;;;1.58;0.43;;;;;;;3.75;100.00;101698.38;5196761;28;20204;-72
2023/01/27 11:53:54;;;;;;;2.30;0.60;;;;;;;3.73;100.00;101688.88;5193106;28;20053;-71
2023/01/27 11:56:25;;;;;;;2.50;0.77;;;;;;;3.77;100.00;101690.66;5202926;28;20485;-72
2023/01/27 11:59:02;;;;;;;5.13;1.00;;;;;;;3.70;100.00;101684.56;5199773;28;20033;-72
2023/01/27 12:01:56;;;;;;;3.30;0.73;;;;;;;3.76;100.00;101689.78;5198552;28;20026;-72
2023/01/27 12:04:48;;;;;;;3.10;0.70;;;;;;;3.72;100.00;101690.59;5194503;28;20698;-72
2023/01/27 12:07:41;;;;;;;2.47;0.75;;;;;;;3.68;100.00;101688.84;5192061;28;20064;-72
2023/01/27 12:10:34;;;;;;;7.03;2.50;;;;;;;3.63;100.00;101692.22;5195922;28;20021;-72
2023/01/27 12:13:19;;;;;;;90.30;26.40;;;;;;;3.56;100.00;101679.22;5198972;28;20075;-72
2023/01/27 12:16:01;;;;;;;5.18;2.30;;;;;;;3.62;100.00;101683.59;5198436;28;20036;-72
2023/01/27 12:18:33;;;;;;;3.17;1.00;;;;;;;3.60;100.00;101677.56;5198263;28;20087;-72
2023/01/27 12:21:07;;;;;;;5.40;1.60;;;;;;;3.61;100.00;101674.13;5192381;28;20029;-72